SVR1823 URMM-HESH
Flight info
| Callsign | SVR1823 |
|---|---|
| Flight time | 3h 21m |
| Altitude | 35000 |
| Route | K0828F350 RESLO5L RESLO DCT VENFO DCT BINOL G487 ODIRA/N0444F350 UW96 SIN UT61 BAG UP29 AYT UA16 TOMBI M855 RASDA A16 CVO L677 MENLI N697 SISIK V603 ALSOB ALSOB1G |
| Aircraft | A321/M-SDE3FGHIRWY/LB1 |
Departure
| Time | 2026-04-26 06:57 |
|---|---|
| Airport | Mineralnye Vody Airport (URMM) |
Arrival
| Time | 2026-04-26 10:18 |
|---|---|
| Airport | Sharm El Sheikh International Airport (HESH) |
| Time | Latitude | Longitude | Altitude | Speed | Heading |
|---|---|---|---|---|---|
| 2026-04-26 06:18 | 44.21699 | 43.09120 | 1051 ft | 0 kts | 212° |
| 2026-04-26 06:46 | 44.21713 | 43.09131 | 1076 ft | 2 kts | 212° |
| 2026-04-26 06:46 | 44.21727 | 43.09144 | 1066 ft | 4 kts | 212° |
| 2026-04-26 06:46 | 44.21756 | 43.09174 | 1051 ft | 5 kts | 247° |
| 2026-04-26 06:46 | 44.21753 | 43.09210 | 1051 ft | 0 kts | 302° |
| 2026-04-26 06:49 | 44.21753 | 43.09209 | 1051 ft | 0 kts | 302° |
| 2026-04-26 06:49 | 44.21758 | 43.09199 | 1051 ft | 3 kts | 304° |
| 2026-04-26 06:49 | 44.21778 | 43.09156 | 1051 ft | 7 kts | 304° |
| 2026-04-26 06:50 | 44.21814 | 43.09083 | 1051 ft | 11 kts | 303° |
| 2026-04-26 06:50 | 44.21885 | 43.09081 | 1051 ft | 13 kts | 30° |
| 2026-04-26 06:50 | 44.21968 | 43.09129 | 1052 ft | 13 kts | 347° |
| 2026-04-26 06:50 | 44.22050 | 43.09070 | 1052 ft | 13 kts | 332° |
| 2026-04-26 06:51 | 44.22131 | 43.09011 | 1053 ft | 13 kts | 332° |
| 2026-04-26 06:51 | 44.22304 | 43.08883 | 1052 ft | 15 kts | 332° |
| 2026-04-26 06:51 | 44.22402 | 43.08808 | 1052 ft | 16 kts | 327° |
| 2026-04-26 06:52 | 44.22484 | 43.08714 | 1055 ft | 15 kts | 314° |
| 2026-04-26 06:52 | 44.22551 | 43.08586 | 1053 ft | 20 kts | 303° |
| 2026-04-26 06:52 | 44.22635 | 43.08400 | 1053 ft | 24 kts | 302° |
| 2026-04-26 06:52 | 44.22729 | 43.08198 | 1050 ft | 25 kts | 303° |
| 2026-04-26 06:53 | 44.22827 | 43.07991 | 1048 ft | 26 kts | 304° |
| 2026-04-26 06:53 | 44.22923 | 43.07782 | 1051 ft | 25 kts | 301° |
| 2026-04-26 06:53 | 44.23016 | 43.07573 | 1052 ft | 25 kts | 302° |
| 2026-04-26 06:53 | 44.23109 | 43.07364 | 1049 ft | 26 kts | 302° |
| 2026-04-26 06:54 | 44.23208 | 43.07144 | 1046 ft | 27 kts | 302° |
| 2026-04-26 06:54 | 44.23311 | 43.06915 | 1046 ft | 27 kts | 302° |
| 2026-04-26 06:54 | 44.23409 | 43.06697 | 1049 ft | 22 kts | 302° |
| 2026-04-26 06:54 | 44.23490 | 43.06520 | 1051 ft | 22 kts | 302° |
| 2026-04-26 06:55 | 44.23557 | 43.06349 | 1051 ft | 16 kts | 287° |
| 2026-04-26 06:55 | 44.23581 | 43.06238 | 1050 ft | 9 kts | 307° |
| 2026-04-26 06:55 | 44.23604 | 43.06277 | 1051 ft | 8 kts | 126° |
| 2026-04-26 06:55 | 44.23568 | 43.06345 | 1052 ft | 11 kts | 126° |
| 2026-04-26 06:56 | 44.23449 | 43.06609 | 1051 ft | 65 kts | 122° |
| 2026-04-26 06:56 | 44.23084 | 43.07412 | 1050 ft | 128 kts | 122° |
| 2026-04-26 06:56 | 44.22516 | 43.08665 | 1057 ft | 176 kts | 122° |
| 2026-04-26 06:56 | 44.21833 | 43.10117 | 1634 ft | 177 kts | 122° |
| 2026-04-26 06:57 | 44.21184 | 43.11548 | 2436 ft | 177 kts | 123° |
| 2026-04-26 06:57 | 44.20522 | 43.13017 | 3093 ft | 185 kts | 124° |
| 2026-04-26 06:57 | 44.19796 | 43.14615 | 3360 ft | 205 kts | 125° |
| 2026-04-26 06:57 | 44.18987 | 43.16391 | 3519 ft | 230 kts | 125° |
| 2026-04-26 06:58 | 44.18097 | 43.18345 | 3953 ft | 244 kts | 125° |
| 2026-04-26 06:58 | 44.17178 | 43.20372 | 4680 ft | 250 kts | 124° |
| 2026-04-26 06:58 | 44.16243 | 43.22436 | 5377 ft | 255 kts | 123° |
| 2026-04-26 06:58 | 44.15552 | 43.24748 | 5884 ft | 267 kts | 97° |
| 2026-04-26 06:59 | 44.15888 | 43.27304 | 6448 ft | 277 kts | 61° |
| 2026-04-26 06:59 | 44.17221 | 43.29228 | 6992 ft | 282 kts | 27° |
| 2026-04-26 06:59 | 44.19116 | 43.29840 | 7543 ft | 284 kts | 352° |
| 2026-04-26 06:59 | 44.20938 | 43.28923 | 8162 ft | 280 kts | 321° |
| 2026-04-26 07:00 | 44.22431 | 43.27182 | 8845 ft | 280 kts | 313° |
| 2026-04-26 07:00 | 44.23837 | 43.25292 | 9528 ft | 281 kts | 311° |
| 2026-04-26 07:00 | 44.25230 | 43.23360 | 10201 ft | 284 kts | 311° |
| 2026-04-26 07:00 | 44.26677 | 43.21368 | 10431 ft | 303 kts | 311° |
| 2026-04-26 07:01 | 44.28140 | 43.19150 | 10558 ft | 319 kts | 302° |
| 2026-04-26 07:01 | 44.29220 | 43.16403 | 10839 ft | 326 kts | 288° |
| 2026-04-26 07:01 | 44.29770 | 43.13330 | 11344 ft | 327 kts | 274° |
| 2026-04-26 07:01 | 44.29730 | 43.10162 | 11916 ft | 328 kts | 260° |
| 2026-04-26 07:02 | 44.29157 | 43.07076 | 12495 ft | 330 kts | 253° |
| 2026-04-26 07:02 | 44.28503 | 43.03996 | 13115 ft | 332 kts | 253° |
| 2026-04-26 07:02 | 44.27778 | 43.00927 | 13697 ft | 334 kts | 247° |
| 2026-04-26 07:02 | 44.26627 | 42.98095 | 14210 ft | 338 kts | 235° |
| 2026-04-26 07:03 | 44.25028 | 42.95664 | 14737 ft | 343 kts | 223° |
| 2026-04-26 07:03 | 44.23179 | 42.93604 | 15255 ft | 345 kts | 221° |
| 2026-04-26 07:03 | 44.21290 | 42.91520 | 15780 ft | 347 kts | 221° |
| 2026-04-26 07:03 | 44.19370 | 42.89393 | 16289 ft | 349 kts | 221° |
| 2026-04-26 07:04 | 44.17492 | 42.87306 | 16773 ft | 352 kts | 221° |
| 2026-04-26 07:04 | 44.15570 | 42.85171 | 17248 ft | 354 kts | 221° |
| 2026-04-26 07:04 | 44.13637 | 42.83026 | 17745 ft | 357 kts | 222° |
| 2026-04-26 07:04 | 44.11689 | 42.80864 | 18251 ft | 359 kts | 222° |
| 2026-04-26 07:05 | 44.09729 | 42.78694 | 18680 ft | 361 kts | 222° |
| 2026-04-26 07:05 | 44.07755 | 42.76516 | 19078 ft | 364 kts | 221° |
| 2026-04-26 07:05 | 44.05763 | 42.74323 | 19474 ft | 366 kts | 221° |
| 2026-04-26 07:05 | 44.03759 | 42.72118 | 19867 ft | 369 kts | 221° |
| 2026-04-26 07:06 | 44.01740 | 42.69898 | 20225 ft | 372 kts | 221° |
| 2026-04-26 07:06 | 43.99707 | 42.67664 | 20602 ft | 374 kts | 221° |
| 2026-04-26 07:06 | 43.97702 | 42.65337 | 20973 ft | 375 kts | 227° |
| 2026-04-26 07:06 | 43.96031 | 42.62574 | 21345 ft | 374 kts | 238° |
| 2026-04-26 07:07 | 43.94797 | 42.59400 | 21713 ft | 374 kts | 249° |
| 2026-04-26 07:07 | 43.94045 | 42.55947 | 22075 ft | 376 kts | 259° |
| 2026-04-26 07:07 | 43.93539 | 42.52378 | 22443 ft | 378 kts | 259° |
| 2026-04-26 07:07 | 43.93028 | 42.48799 | 22814 ft | 380 kts | 259° |
| 2026-04-26 07:08 | 43.92507 | 42.45189 | 23185 ft | 382 kts | 259° |
| 2026-04-26 07:08 | 43.91981 | 42.41564 | 23551 ft | 385 kts | 259° |
| 2026-04-26 07:08 | 43.91448 | 42.37913 | 23846 ft | 387 kts | 259° |
| 2026-04-26 07:08 | 43.90913 | 42.34247 | 24184 ft | 389 kts | 259° |
| 2026-04-26 07:09 | 43.90373 | 42.30565 | 24497 ft | 390 kts | 259° |
| 2026-04-26 07:09 | 43.89829 | 42.26864 | 24820 ft | 392 kts | 258° |
| 2026-04-26 07:09 | 43.89283 | 42.23156 | 25135 ft | 394 kts | 259° |
| 2026-04-26 07:09 | 43.88733 | 42.19421 | 25452 ft | 395 kts | 258° |
| 2026-04-26 07:10 | 43.87063 | 42.08156 | 26369 ft | 400 kts | 258° |
| 2026-04-26 07:11 | 43.85929 | 42.00565 | 26963 ft | 404 kts | 258° |
| 2026-04-26 07:11 | 43.85365 | 41.96798 | 27239 ft | 406 kts | 258° |
| 2026-04-26 07:11 | 43.84788 | 41.92962 | 27531 ft | 408 kts | 258° |
| 2026-04-26 07:11 | 43.84209 | 41.89109 | 27828 ft | 410 kts | 258° |
| 2026-04-26 07:12 | 43.83628 | 41.85238 | 28112 ft | 411 kts | 258° |
| 2026-04-26 07:12 | 43.83043 | 41.81353 | 28399 ft | 413 kts | 258° |
| 2026-04-26 07:12 | 43.82456 | 41.77453 | 28681 ft | 415 kts | 258° |
| 2026-04-26 07:12 | 43.81863 | 41.73541 | 28958 ft | 416 kts | 258° |
| 2026-04-26 07:13 | 43.81265 | 41.69608 | 29233 ft | 418 kts | 258° |
| 2026-04-26 07:13 | 43.80663 | 41.65664 | 29491 ft | 420 kts | 258° |
| 2026-04-26 07:13 | 43.80058 | 41.61706 | 29731 ft | 421 kts | 258° |
| 2026-04-26 07:13 | 43.79449 | 41.57732 | 29952 ft | 423 kts | 258° |
| 2026-04-26 07:14 | 43.78837 | 41.53740 | 30148 ft | 425 kts | 258° |
| 2026-04-26 07:14 | 43.78219 | 41.49733 | 30336 ft | 426 kts | 258° |
| 2026-04-26 07:14 | 43.77597 | 41.45714 | 30522 ft | 428 kts | 258° |
| 2026-04-26 07:14 | 43.76974 | 41.41697 | 30780 ft | 427 kts | 258° |
| 2026-04-26 07:15 | 43.76349 | 41.37682 | 31042 ft | 426 kts | 258° |
| 2026-04-26 07:15 | 43.75726 | 41.33679 | 31291 ft | 425 kts | 258° |
| 2026-04-26 07:15 | 43.75103 | 41.29683 | 31537 ft | 425 kts | 258° |
| 2026-04-26 07:15 | 43.74489 | 41.25751 | 31791 ft | 424 kts | 258° |
| 2026-04-26 07:16 | 43.73866 | 41.21772 | 32038 ft | 423 kts | 258° |
| 2026-04-26 07:16 | 43.73242 | 41.17798 | 32268 ft | 423 kts | 258° |
| 2026-04-26 07:16 | 43.72618 | 41.13823 | 32517 ft | 423 kts | 258° |
| 2026-04-26 07:16 | 43.71993 | 41.09855 | 32737 ft | 422 kts | 258° |
| 2026-04-26 07:17 | 43.71365 | 41.05890 | 32981 ft | 422 kts | 258° |
| 2026-04-26 07:17 | 43.70735 | 41.01935 | 33249 ft | 421 kts | 258° |
| 2026-04-26 07:17 | 43.70104 | 40.97989 | 33499 ft | 420 kts | 258° |
| 2026-04-26 07:17 | 43.69473 | 40.94046 | 33791 ft | 419 kts | 258° |
| 2026-04-26 07:18 | 43.68882 | 40.90113 | 34013 ft | 418 kts | 262° |
| 2026-04-26 07:18 | 43.68667 | 40.86107 | 34189 ft | 419 kts | 270° |
| 2026-04-26 07:18 | 43.68698 | 40.82091 | 34397 ft | 418 kts | 270° |
| 2026-04-26 07:18 | 43.68723 | 40.78077 | 34562 ft | 418 kts | 269° |
| 2026-04-26 07:19 | 43.68742 | 40.74070 | 34727 ft | 417 kts | 269° |
| 2026-04-26 07:19 | 43.68757 | 40.70063 | 34853 ft | 418 kts | 269° |
| 2026-04-26 07:19 | 43.68772 | 40.66043 | 35002 ft | 419 kts | 269° |
| 2026-04-26 07:20 | 43.68801 | 40.58005 | 35046 ft | 417 kts | 269° |
| 2026-04-26 07:20 | 43.68816 | 40.49992 | 35053 ft | 417 kts | 269° |
| 2026-04-26 07:21 | 43.68824 | 40.43335 | 35045 ft | 417 kts | 269° |
| 2026-04-26 07:21 | 43.68835 | 40.35307 | 35045 ft | 417 kts | 269° |
| 2026-04-26 07:22 | 43.68841 | 40.27281 | 35039 ft | 417 kts | 269° |
| 2026-04-26 07:22 | 43.68836 | 40.19261 | 35043 ft | 418 kts | 269° |
| 2026-04-26 07:23 | 43.68492 | 40.11274 | 35035 ft | 417 kts | 258° |
| 2026-04-26 07:23 | 43.66513 | 40.03761 | 35034 ft | 418 kts | 246° |
| 2026-04-26 07:24 | 43.64125 | 39.96437 | 35035 ft | 418 kts | 246° |
| 2026-04-26 07:24 | 43.61757 | 39.89162 | 35054 ft | 418 kts | 246° |
| 2026-04-26 07:25 | 43.59363 | 39.81851 | 35045 ft | 418 kts | 246° |
| 2026-04-26 07:25 | 43.56961 | 39.74542 | 35040 ft | 418 kts | 246° |
| 2026-04-26 07:26 | 43.54558 | 39.67247 | 35036 ft | 418 kts | 246° |
| 2026-04-26 07:26 | 43.52137 | 39.59963 | 35038 ft | 418 kts | 246° |
| 2026-04-26 07:27 | 43.49707 | 39.52688 | 35043 ft | 418 kts | 246° |
| 2026-04-26 07:27 | 43.47284 | 39.45407 | 35037 ft | 418 kts | 246° |
| 2026-04-26 07:28 | 43.44887 | 39.38266 | 35030 ft | 398 kts | 246° |
| 2026-04-26 07:28 | 43.43742 | 39.34870 | 35030 ft | 386 kts | 246° |
| 2026-04-26 07:28 | 43.42612 | 39.31512 | 35036 ft | 389 kts | 246° |
| 2026-04-26 07:29 | 43.40312 | 39.24662 | 35040 ft | 400 kts | 246° |
| 2026-04-26 07:29 | 43.37946 | 39.17626 | 35027 ft | 411 kts | 246° |
| 2026-04-26 07:30 | 43.35507 | 39.10424 | 35033 ft | 418 kts | 245° |
| 2026-04-26 07:30 | 43.33206 | 39.03088 | 35036 ft | 418 kts | 249° |
| 2026-04-26 07:31 | 43.31189 | 38.95651 | 35032 ft | 418 kts | 250° |
| 2026-04-26 07:31 | 43.29176 | 38.88158 | 35046 ft | 418 kts | 250° |
| 2026-04-26 07:32 | 43.27094 | 38.80696 | 35041 ft | 419 kts | 249° |
| 2026-04-26 07:32 | 43.24971 | 38.73252 | 35045 ft | 419 kts | 249° |
| 2026-04-26 07:33 | 43.22816 | 38.65826 | 35040 ft | 419 kts | 249° |
| 2026-04-26 07:33 | 43.20655 | 38.58397 | 35044 ft | 419 kts | 249° |
| 2026-04-26 07:34 | 43.18502 | 38.50971 | 35044 ft | 419 kts | 249° |
| 2026-04-26 07:34 | 43.16352 | 38.43537 | 35043 ft | 420 kts | 249° |
| 2026-04-26 07:35 | 43.14188 | 38.36105 | 35041 ft | 420 kts | 249° |
| 2026-04-26 07:35 | 43.12022 | 38.28743 | 35040 ft | 420 kts | 249° |
| 2026-04-26 07:36 | 43.09840 | 38.21321 | 35047 ft | 420 kts | 249° |
| 2026-04-26 07:36 | 43.07669 | 38.13900 | 35036 ft | 420 kts | 249° |
| 2026-04-26 07:37 | 43.05516 | 38.06468 | 35033 ft | 420 kts | 249° |
| 2026-04-26 07:37 | 43.03364 | 37.99033 | 35033 ft | 421 kts | 249° |
| 2026-04-26 07:38 | 43.01191 | 37.91610 | 35031 ft | 421 kts | 249° |
| 2026-04-26 07:38 | 42.98990 | 37.84207 | 35021 ft | 421 kts | 248° |
| 2026-04-26 07:39 | 42.96786 | 37.76791 | 35016 ft | 422 kts | 248° |
| 2026-04-26 07:39 | 42.94569 | 37.69381 | 35021 ft | 422 kts | 248° |
| 2026-04-26 07:40 | 42.92343 | 37.61964 | 35026 ft | 422 kts | 248° |
| 2026-04-26 07:40 | 42.90115 | 37.54550 | 35023 ft | 422 kts | 248° |
| 2026-04-26 07:41 | 42.87887 | 37.47136 | 35007 ft | 423 kts | 248° |
| 2026-04-26 07:41 | 42.85646 | 37.39717 | 35002 ft | 423 kts | 248° |
| 2026-04-26 07:42 | 42.83394 | 37.32301 | 35009 ft | 424 kts | 248° |
| 2026-04-26 07:42 | 42.81149 | 37.24926 | 35013 ft | 424 kts | 248° |
| 2026-04-26 07:43 | 42.78887 | 37.17512 | 35009 ft | 424 kts | 248° |
| 2026-04-26 07:43 | 42.76610 | 37.10082 | 35006 ft | 425 kts | 248° |
| 2026-04-26 07:44 | 42.74336 | 37.02654 | 35010 ft | 425 kts | 248° |
| 2026-04-26 07:44 | 42.72057 | 36.95240 | 35009 ft | 425 kts | 248° |
| 2026-04-26 07:45 | 42.69701 | 36.87869 | 35001 ft | 425 kts | 245° |
| 2026-04-26 07:45 | 42.67097 | 36.80701 | 34999 ft | 426 kts | 244° |
| 2026-04-26 07:46 | 42.64402 | 36.73530 | 34999 ft | 426 kts | 244° |
| 2026-04-26 07:46 | 42.61746 | 36.66331 | 35003 ft | 426 kts | 244° |
| 2026-04-26 07:47 | 42.59117 | 36.59108 | 35003 ft | 426 kts | 244° |
| 2026-04-26 07:47 | 42.56480 | 36.51888 | 34999 ft | 427 kts | 244° |
| 2026-04-26 07:48 | 42.53835 | 36.44688 | 35003 ft | 427 kts | 244° |
| 2026-04-26 07:48 | 42.51186 | 36.37489 | 35000 ft | 427 kts | 244° |
| 2026-04-26 07:49 | 42.48538 | 36.30298 | 35004 ft | 427 kts | 244° |
| 2026-04-26 07:49 | 42.45879 | 36.23104 | 34993 ft | 427 kts | 244° |
| 2026-04-26 07:50 | 42.41880 | 36.12318 | 34996 ft | 427 kts | 244° |
| 2026-04-26 07:50 | 42.39219 | 36.05179 | 34997 ft | 428 kts | 244° |
| 2026-04-26 07:51 | 42.36539 | 35.98001 | 34989 ft | 428 kts | 244° |
| 2026-04-26 07:51 | 42.33850 | 35.90813 | 34987 ft | 429 kts | 244° |
| 2026-04-26 07:52 | 42.31153 | 35.83615 | 34987 ft | 429 kts | 244° |
| 2026-04-26 07:52 | 42.28451 | 35.76425 | 34991 ft | 430 kts | 244° |
| 2026-04-26 07:53 | 42.25736 | 35.69232 | 34986 ft | 430 kts | 244° |
| 2026-04-26 07:53 | 42.23017 | 35.62041 | 34987 ft | 431 kts | 244° |
| 2026-04-26 07:54 | 42.20287 | 35.54847 | 34993 ft | 431 kts | 244° |
| 2026-04-26 07:54 | 42.17557 | 35.47647 | 35134 ft | 432 kts | 244° |
| 2026-04-26 07:55 | 42.16187 | 35.44041 | 35254 ft | 433 kts | 244° |
| 2026-04-26 07:55 | 42.14811 | 35.40432 | 35373 ft | 433 kts | 243° |
| 2026-04-26 07:55 | 42.13432 | 35.36815 | 35504 ft | 433 kts | 244° |
| 2026-04-26 07:55 | 42.12059 | 35.33203 | 35629 ft | 433 kts | 244° |
| 2026-04-26 07:56 | 42.10691 | 35.29592 | 35754 ft | 433 kts | 244° |
| 2026-04-26 07:56 | 42.09326 | 35.25987 | 35914 ft | 432 kts | 244° |
| 2026-04-26 07:56 | 42.06585 | 35.18789 | 35989 ft | 432 kts | 244° |
| 2026-04-26 07:57 | 42.03832 | 35.11608 | 35981 ft | 432 kts | 243° |
| 2026-04-26 07:57 | 42.00238 | 35.05125 | 35989 ft | 435 kts | 225° |
| 2026-04-26 07:58 | 41.95717 | 34.99680 | 35989 ft | 437 kts | 223° |
| 2026-04-26 07:58 | 41.91184 | 34.94253 | 35994 ft | 437 kts | 223° |
| 2026-04-26 07:59 | 41.86674 | 34.88856 | 35993 ft | 438 kts | 223° |
| 2026-04-26 07:59 | 41.82116 | 34.83425 | 35998 ft | 438 kts | 223° |
| 2026-04-26 08:00 | 41.77558 | 34.77989 | 36001 ft | 439 kts | 223° |
| 2026-04-26 08:00 | 41.72997 | 34.72545 | 36005 ft | 439 kts | 223° |
| 2026-04-26 08:01 | 41.68422 | 34.67108 | 36006 ft | 440 kts | 223° |
| 2026-04-26 08:01 | 41.63831 | 34.61682 | 36013 ft | 440 kts | 223° |
| 2026-04-26 08:02 | 41.59236 | 34.56256 | 36011 ft | 441 kts | 223° |
| 2026-04-26 08:02 | 41.54646 | 34.50823 | 36013 ft | 441 kts | 223° |
| 2026-04-26 08:03 | 41.50061 | 34.45366 | 36021 ft | 442 kts | 223° |
| 2026-04-26 08:03 | 41.45471 | 34.39910 | 36025 ft | 442 kts | 223° |
| 2026-04-26 08:04 | 41.40901 | 34.34503 | 36025 ft | 443 kts | 223° |
| 2026-04-26 08:04 | 41.36287 | 34.29054 | 36029 ft | 443 kts | 223° |
| 2026-04-26 08:05 | 41.31677 | 34.23608 | 36030 ft | 443 kts | 223° |
| 2026-04-26 08:05 | 41.27058 | 34.18182 | 36041 ft | 442 kts | 221° |
| 2026-04-26 08:06 | 41.22439 | 34.12788 | 36046 ft | 442 kts | 223° |
| 2026-04-26 08:06 | 41.17827 | 34.07402 | 36052 ft | 441 kts | 223° |
| 2026-04-26 08:07 | 41.13212 | 34.02015 | 36040 ft | 442 kts | 223° |
| 2026-04-26 08:07 | 41.08584 | 33.96633 | 36043 ft | 443 kts | 222° |
| 2026-04-26 08:08 | 41.03950 | 33.91253 | 36040 ft | 443 kts | 222° |
| 2026-04-26 08:08 | 41.00095 | 33.86778 | 36045 ft | 443 kts | 222° |
| 2026-04-26 08:09 | 40.94699 | 33.80533 | 36052 ft | 443 kts | 222° |
| 2026-04-26 08:09 | 40.90052 | 33.75173 | 36053 ft | 444 kts | 222° |
| 2026-04-26 08:10 | 40.85398 | 33.69813 | 36056 ft | 444 kts | 221° |
| 2026-04-26 08:10 | 40.81523 | 33.65356 | 36057 ft | 444 kts | 222° |
| 2026-04-26 08:11 | 40.76851 | 33.60000 | 36063 ft | 444 kts | 222° |
| 2026-04-26 08:11 | 40.72189 | 33.54651 | 36058 ft | 445 kts | 222° |
| 2026-04-26 08:12 | 40.67518 | 33.49295 | 36061 ft | 445 kts | 221° |
| 2026-04-26 08:12 | 40.62831 | 33.43948 | 36062 ft | 445 kts | 222° |
| 2026-04-26 08:13 | 40.58147 | 33.38611 | 36059 ft | 445 kts | 221° |
| 2026-04-26 08:13 | 40.53454 | 33.33286 | 36060 ft | 446 kts | 221° |
| 2026-04-26 08:14 | 40.48759 | 33.27964 | 36064 ft | 445 kts | 222° |
| 2026-04-26 08:14 | 40.44096 | 33.22678 | 36066 ft | 446 kts | 221° |
| 2026-04-26 08:15 | 40.39402 | 33.17357 | 36064 ft | 446 kts | 222° |
| 2026-04-26 08:15 | 40.34701 | 33.12040 | 36067 ft | 447 kts | 221° |
| 2026-04-26 08:16 | 40.29984 | 33.06731 | 36069 ft | 447 kts | 221° |
| 2026-04-26 08:16 | 40.25262 | 33.01429 | 36070 ft | 447 kts | 221° |
| 2026-04-26 08:17 | 40.20534 | 32.96136 | 36071 ft | 447 kts | 221° |
| 2026-04-26 08:17 | 40.15799 | 32.90843 | 36070 ft | 448 kts | 221° |
| 2026-04-26 08:18 | 40.11068 | 32.85544 | 36074 ft | 448 kts | 221° |
| 2026-04-26 08:18 | 40.06176 | 32.80510 | 36076 ft | 449 kts | 211° |
| 2026-04-26 08:19 | 40.00637 | 32.76723 | 36077 ft | 449 kts | 208° |
| 2026-04-26 08:19 | 39.95114 | 32.73024 | 36079 ft | 449 kts | 208° |
| 2026-04-26 08:20 | 39.89561 | 32.69296 | 36082 ft | 449 kts | 208° |
| 2026-04-26 08:20 | 39.84007 | 32.65571 | 36082 ft | 449 kts | 208° |
| 2026-04-26 08:21 | 39.78444 | 32.61865 | 36079 ft | 449 kts | 207° |
| 2026-04-26 08:21 | 39.72876 | 32.58171 | 36077 ft | 450 kts | 207° |
| 2026-04-26 08:22 | 39.67302 | 32.54462 | 36078 ft | 450 kts | 207° |
| 2026-04-26 08:22 | 39.61732 | 32.50759 | 36080 ft | 450 kts | 208° |
| 2026-04-26 08:23 | 39.56153 | 32.47063 | 36083 ft | 450 kts | 207° |
| 2026-04-26 08:23 | 39.50582 | 32.43384 | 36084 ft | 449 kts | 208° |
| 2026-04-26 08:24 | 39.45022 | 32.39708 | 36083 ft | 449 kts | 208° |
| 2026-04-26 08:24 | 39.39461 | 32.36042 | 36083 ft | 448 kts | 208° |
| 2026-04-26 08:25 | 39.33898 | 32.32408 | 36079 ft | 448 kts | 207° |
| 2026-04-26 08:25 | 39.28326 | 32.28781 | 36077 ft | 449 kts | 207° |
| 2026-04-26 08:26 | 39.22745 | 32.25151 | 36076 ft | 449 kts | 207° |
| 2026-04-26 08:26 | 39.17165 | 32.21527 | 36080 ft | 449 kts | 207° |
| 2026-04-26 08:27 | 39.11587 | 32.17908 | 36075 ft | 449 kts | 207° |
| 2026-04-26 08:27 | 39.06016 | 32.14295 | 36076 ft | 448 kts | 207° |
| 2026-04-26 08:28 | 39.00447 | 32.10693 | 36073 ft | 448 kts | 207° |
| 2026-04-26 08:28 | 38.94871 | 32.07103 | 36075 ft | 448 kts | 206° |
| 2026-04-26 08:29 | 38.89289 | 32.03510 | 36067 ft | 449 kts | 207° |
| 2026-04-26 08:29 | 38.83708 | 31.99912 | 36067 ft | 449 kts | 207° |
| 2026-04-26 08:30 | 38.78153 | 31.96357 | 36076 ft | 449 kts | 207° |
| 2026-04-26 08:30 | 38.72520 | 31.92763 | 36077 ft | 449 kts | 207° |
| 2026-04-26 08:31 | 38.66971 | 31.89208 | 36078 ft | 449 kts | 207° |
| 2026-04-26 08:31 | 38.61377 | 31.85632 | 36079 ft | 449 kts | 207° |
| 2026-04-26 08:32 | 38.55787 | 31.82077 | 36078 ft | 449 kts | 206° |
| 2026-04-26 08:32 | 38.50186 | 31.78519 | 36075 ft | 449 kts | 207° |
| 2026-04-26 08:33 | 38.44587 | 31.74961 | 36075 ft | 450 kts | 206° |
| 2026-04-26 08:33 | 38.38982 | 31.71408 | 36077 ft | 450 kts | 206° |
| 2026-04-26 08:34 | 38.33375 | 31.67862 | 36080 ft | 450 kts | 206° |
| 2026-04-26 08:34 | 38.27762 | 31.64313 | 36084 ft | 450 kts | 206° |
| 2026-04-26 08:35 | 38.22149 | 31.60771 | 36090 ft | 450 kts | 206° |
| 2026-04-26 08:35 | 38.16533 | 31.57235 | 36089 ft | 450 kts | 206° |
| 2026-04-26 08:36 | 38.10915 | 31.53705 | 36088 ft | 450 kts | 206° |
| 2026-04-26 08:36 | 38.05265 | 31.50260 | 36091 ft | 450 kts | 205° |
| 2026-04-26 08:37 | 37.99589 | 31.46883 | 36091 ft | 451 kts | 205° |
| 2026-04-26 08:37 | 37.93908 | 31.43502 | 36093 ft | 451 kts | 205° |
| 2026-04-26 08:38 | 37.88234 | 31.40100 | 36092 ft | 451 kts | 205° |
| 2026-04-26 08:38 | 37.82562 | 31.36699 | 36087 ft | 451 kts | 205° |
| 2026-04-26 08:39 | 37.76936 | 31.33332 | 36084 ft | 450 kts | 205° |
| 2026-04-26 08:39 | 37.71270 | 31.29944 | 36081 ft | 450 kts | 205° |
| 2026-04-26 08:40 | 37.65607 | 31.26575 | 36069 ft | 450 kts | 205° |
| 2026-04-26 08:40 | 37.59942 | 31.23212 | 36056 ft | 450 kts | 205° |
| 2026-04-26 08:41 | 37.54275 | 31.19845 | 36046 ft | 450 kts | 204° |
| 2026-04-26 08:41 | 37.48598 | 31.16477 | 36046 ft | 451 kts | 205° |
| 2026-04-26 08:42 | 37.42919 | 31.13120 | 36034 ft | 451 kts | 205° |
| 2026-04-26 08:42 | 37.37239 | 31.09760 | 36084 ft | 449 kts | 205° |
| 2026-04-26 08:43 | 37.34431 | 31.08061 | 36330 ft | 448 kts | 206° |
| 2026-04-26 08:43 | 37.31642 | 31.06341 | 36571 ft | 445 kts | 200° |
| 2026-04-26 08:43 | 37.28665 | 31.05356 | 36828 ft | 442 kts | 188° |
| 2026-04-26 08:43 | 37.25624 | 31.04786 | 36955 ft | 443 kts | 188° |
| 2026-04-26 08:44 | 37.19486 | 31.03660 | 36973 ft | 448 kts | 188° |
| 2026-04-26 08:44 | 37.13362 | 31.02534 | 36962 ft | 447 kts | 189° |
| 2026-04-26 08:45 | 37.07205 | 31.01388 | 36958 ft | 448 kts | 189° |
| 2026-04-26 08:45 | 37.01044 | 31.00236 | 36944 ft | 448 kts | 189° |
| 2026-04-26 08:46 | 36.94891 | 30.99091 | 36950 ft | 447 kts | 188° |
| 2026-04-26 08:46 | 36.88731 | 30.97956 | 36955 ft | 447 kts | 188° |
| 2026-04-26 08:47 | 36.82573 | 30.96818 | 36958 ft | 447 kts | 189° |
| 2026-04-26 08:47 | 36.76412 | 30.95671 | 36962 ft | 447 kts | 189° |
| 2026-04-26 08:48 | 36.70251 | 30.94534 | 36974 ft | 447 kts | 188° |
| 2026-04-26 08:48 | 36.64131 | 30.93408 | 36976 ft | 447 kts | 188° |
| 2026-04-26 08:49 | 36.57932 | 30.92269 | 36971 ft | 447 kts | 189° |
| 2026-04-26 08:49 | 36.51820 | 30.91149 | 36969 ft | 447 kts | 189° |
| 2026-04-26 08:50 | 36.45723 | 30.90037 | 36939 ft | 433 kts | 189° |
| 2026-04-26 08:50 | 36.42785 | 30.89498 | 36956 ft | 422 kts | 189° |
| 2026-04-26 08:50 | 36.39886 | 30.88966 | 36948 ft | 422 kts | 189° |
| 2026-04-26 08:51 | 36.31033 | 30.87350 | 36953 ft | 435 kts | 189° |
| 2026-04-26 08:52 | 36.24994 | 30.86251 | 36958 ft | 442 kts | 189° |
| 2026-04-26 08:52 | 36.18889 | 30.85138 | 36961 ft | 444 kts | 189° |
| 2026-04-26 08:53 | 36.12776 | 30.84027 | 36952 ft | 444 kts | 189° |
| 2026-04-26 08:53 | 36.06663 | 30.82915 | 36952 ft | 444 kts | 189° |
| 2026-04-26 08:54 | 36.00498 | 30.82649 | 36959 ft | 445 kts | 178° |
| 2026-04-26 08:54 | 35.94309 | 30.83043 | 36974 ft | 445 kts | 178° |
| 2026-04-26 08:55 | 35.88153 | 30.83409 | 36970 ft | 446 kts | 179° |
| 2026-04-26 08:55 | 35.81954 | 30.83773 | 36975 ft | 446 kts | 179° |
| 2026-04-26 08:56 | 35.75760 | 30.84143 | 36979 ft | 445 kts | 179° |
| 2026-04-26 08:56 | 35.69573 | 30.84523 | 36982 ft | 445 kts | 179° |
| 2026-04-26 08:57 | 35.63392 | 30.84894 | 36980 ft | 444 kts | 179° |
| 2026-04-26 08:57 | 35.57212 | 30.85213 | 36970 ft | 444 kts | 180° |
| 2026-04-26 08:58 | 35.52081 | 30.85378 | 36971 ft | 444 kts | 180° |
| 2026-04-26 08:58 | 35.45899 | 30.85547 | 36972 ft | 444 kts | 180° |
| 2026-04-26 08:59 | 35.39723 | 30.85728 | 36972 ft | 444 kts | 180° |
| 2026-04-26 08:59 | 35.33542 | 30.85937 | 36963 ft | 444 kts | 180° |
| 2026-04-26 09:00 | 35.27367 | 30.86156 | 36969 ft | 444 kts | 180° |
| 2026-04-26 09:00 | 35.21189 | 30.86368 | 36970 ft | 444 kts | 181° |
| 2026-04-26 09:01 | 35.15013 | 30.86566 | 36972 ft | 444 kts | 181° |
| 2026-04-26 09:01 | 35.08839 | 30.86772 | 36962 ft | 444 kts | 181° |
| 2026-04-26 09:02 | 35.02664 | 30.86977 | 36965 ft | 443 kts | 181° |
| 2026-04-26 09:02 | 34.96490 | 30.87179 | 36966 ft | 443 kts | 181° |
| 2026-04-26 09:03 | 34.90368 | 30.87381 | 36955 ft | 443 kts | 181° |
| 2026-04-26 09:03 | 34.84200 | 30.87580 | 36962 ft | 443 kts | 181° |
| 2026-04-26 09:04 | 34.78034 | 30.87785 | 36969 ft | 443 kts | 181° |
| 2026-04-26 09:04 | 34.71873 | 30.88001 | 36972 ft | 443 kts | 181° |
| 2026-04-26 09:05 | 34.65713 | 30.88216 | 36964 ft | 443 kts | 182° |
| 2026-04-26 09:05 | 34.59548 | 30.88415 | 36968 ft | 443 kts | 181° |
| 2026-04-26 09:06 | 34.53383 | 30.88692 | 36974 ft | 443 kts | 181° |
| 2026-04-26 09:06 | 34.47216 | 30.89023 | 36975 ft | 444 kts | 181° |
| 2026-04-26 09:07 | 34.41094 | 30.89350 | 36973 ft | 443 kts | 181° |
| 2026-04-26 09:07 | 34.34931 | 30.89653 | 36976 ft | 443 kts | 181° |
| 2026-04-26 09:08 | 34.28764 | 30.89945 | 36975 ft | 443 kts | 181° |
| 2026-04-26 09:08 | 34.22601 | 30.90250 | 36977 ft | 444 kts | 181° |
| 2026-04-26 09:09 | 34.16431 | 30.90586 | 36982 ft | 444 kts | 181° |
| 2026-04-26 09:09 | 34.10258 | 30.90937 | 36987 ft | 444 kts | 181° |
| 2026-04-26 09:10 | 34.04086 | 30.91291 | 36984 ft | 444 kts | 181° |
| 2026-04-26 09:10 | 33.97915 | 30.91629 | 36974 ft | 443 kts | 181° |
| 2026-04-26 09:11 | 33.91752 | 30.91941 | 36980 ft | 443 kts | 182° |
| 2026-04-26 09:11 | 33.85593 | 30.92170 | 36982 ft | 442 kts | 182° |
| 2026-04-26 09:12 | 33.79438 | 30.92377 | 36983 ft | 442 kts | 182° |
| 2026-04-26 09:12 | 33.73280 | 30.92602 | 36976 ft | 442 kts | 183° |
| 2026-04-26 09:13 | 33.67123 | 30.92831 | 36981 ft | 443 kts | 183° |
| 2026-04-26 09:13 | 33.60967 | 30.93068 | 36983 ft | 443 kts | 183° |
| 2026-04-26 09:14 | 33.54809 | 30.93307 | 36959 ft | 443 kts | 183° |
| 2026-04-26 09:14 | 33.48649 | 30.93549 | 36973 ft | 443 kts | 183° |
| 2026-04-26 09:15 | 33.42518 | 30.93778 | 36979 ft | 443 kts | 184° |
| 2026-04-26 09:15 | 33.36343 | 30.93996 | 36994 ft | 444 kts | 184° |
| 2026-04-26 09:16 | 33.30169 | 30.94233 | 36974 ft | 443 kts | 184° |
| 2026-04-26 09:16 | 33.24002 | 30.94482 | 36988 ft | 443 kts | 184° |
| 2026-04-26 09:17 | 33.17836 | 30.94711 | 36991 ft | 443 kts | 184° |
| 2026-04-26 09:17 | 33.11680 | 30.94933 | 36991 ft | 443 kts | 184° |
| 2026-04-26 09:18 | 33.05515 | 30.95330 | 36981 ft | 445 kts | 181° |
| 2026-04-26 09:18 | 32.99343 | 30.96088 | 36982 ft | 446 kts | 180° |
| 2026-04-26 09:19 | 32.93174 | 30.96892 | 36989 ft | 446 kts | 181° |
| 2026-04-26 09:19 | 32.87010 | 30.97611 | 37003 ft | 445 kts | 181° |
| 2026-04-26 09:20 | 32.80846 | 30.98283 | 36990 ft | 444 kts | 182° |
| 2026-04-26 09:20 | 32.74733 | 30.98945 | 37009 ft | 444 kts | 182° |
| 2026-04-26 09:21 | 32.68584 | 30.99620 | 37008 ft | 444 kts | 182° |
| 2026-04-26 09:21 | 32.62432 | 31.00309 | 37009 ft | 444 kts | 182° |
| 2026-04-26 09:22 | 32.56283 | 31.01002 | 37004 ft | 444 kts | 182° |
| 2026-04-26 09:22 | 32.50138 | 31.01678 | 37013 ft | 443 kts | 182° |
| 2026-04-26 09:23 | 32.44000 | 31.02359 | 37012 ft | 443 kts | 182° |
| 2026-04-26 09:23 | 32.37860 | 31.03040 | 36975 ft | 443 kts | 182° |
| 2026-04-26 09:24 | 32.31725 | 31.03718 | 36994 ft | 442 kts | 183° |
| 2026-04-26 09:24 | 32.25598 | 31.04391 | 37006 ft | 442 kts | 183° |
| 2026-04-26 09:25 | 32.19513 | 31.05060 | 37014 ft | 442 kts | 183° |
| 2026-04-26 09:25 | 32.13385 | 31.05733 | 37010 ft | 442 kts | 183° |
| 2026-04-26 09:26 | 32.07257 | 31.06414 | 36998 ft | 442 kts | 184° |
| 2026-04-26 09:26 | 32.01137 | 31.07085 | 37007 ft | 442 kts | 184° |
| 2026-04-26 09:27 | 31.95017 | 31.07742 | 37011 ft | 442 kts | 184° |
| 2026-04-26 09:27 | 31.88891 | 31.08393 | 37013 ft | 442 kts | 184° |
| 2026-04-26 09:28 | 31.82766 | 31.09051 | 37014 ft | 442 kts | 184° |
| 2026-04-26 09:28 | 31.76678 | 31.09702 | 37014 ft | 442 kts | 184° |
| 2026-04-26 09:29 | 31.70556 | 31.10358 | 37012 ft | 442 kts | 184° |
| 2026-04-26 09:29 | 31.64433 | 31.11018 | 36967 ft | 442 kts | 184° |
| 2026-04-26 09:30 | 31.58314 | 31.11674 | 36985 ft | 442 kts | 185° |
| 2026-04-26 09:30 | 31.52187 | 31.12334 | 36988 ft | 443 kts | 184° |
| 2026-04-26 09:31 | 31.46044 | 31.13347 | 36997 ft | 448 kts | 180° |
| 2026-04-26 09:31 | 31.39892 | 31.14623 | 36961 ft | 449 kts | 180° |
| 2026-04-26 09:32 | 31.33738 | 31.15868 | 36968 ft | 448 kts | 181° |
| 2026-04-26 09:32 | 31.27576 | 31.17029 | 36978 ft | 448 kts | 181° |
| 2026-04-26 09:33 | 31.21416 | 31.18159 | 36992 ft | 448 kts | 181° |
| 2026-04-26 09:33 | 31.15254 | 31.19295 | 36942 ft | 449 kts | 181° |
| 2026-04-26 09:34 | 31.09088 | 31.20441 | 36956 ft | 449 kts | 181° |
| 2026-04-26 09:34 | 31.02916 | 31.21592 | 36966 ft | 449 kts | 181° |
| 2026-04-26 09:35 | 30.96741 | 31.22742 | 36966 ft | 449 kts | 181° |
| 2026-04-26 09:35 | 30.90564 | 31.23889 | 36981 ft | 450 kts | 181° |
| 2026-04-26 09:36 | 30.84381 | 31.25032 | 36961 ft | 449 kts | 182° |
| 2026-04-26 09:36 | 30.78246 | 31.26160 | 36984 ft | 450 kts | 182° |
| 2026-04-26 09:37 | 30.72064 | 31.27302 | 36990 ft | 450 kts | 182° |
| 2026-04-26 09:37 | 30.65883 | 31.28450 | 36994 ft | 450 kts | 182° |
| 2026-04-26 09:38 | 30.59708 | 31.29597 | 36977 ft | 449 kts | 182° |
| 2026-04-26 09:38 | 30.53538 | 31.30732 | 36989 ft | 449 kts | 182° |
| 2026-04-26 09:39 | 30.47365 | 31.31859 | 36997 ft | 449 kts | 182° |
| 2026-04-26 09:39 | 30.41190 | 31.32989 | 36999 ft | 449 kts | 182° |
| 2026-04-26 09:40 | 30.35021 | 31.34119 | 36969 ft | 448 kts | 183° |
| 2026-04-26 09:40 | 30.28899 | 31.35248 | 36994 ft | 448 kts | 183° |
| 2026-04-26 09:41 | 30.22743 | 31.36377 | 37019 ft | 448 kts | 183° |
| 2026-04-26 09:41 | 30.16587 | 31.37504 | 37023 ft | 448 kts | 183° |
| 2026-04-26 09:41 | 30.13508 | 31.38247 | 36983 ft | 460 kts | 174° |
| 2026-04-26 09:42 | 30.10492 | 31.39699 | 36991 ft | 480 kts | 162° |
| 2026-04-26 09:42 | 30.07689 | 31.41925 | 36998 ft | 499 kts | 148° |
| 2026-04-26 09:42 | 30.05281 | 31.44908 | 37001 ft | 517 kts | 135° |
| 2026-04-26 09:43 | 30.00994 | 31.51601 | 36999 ft | 519 kts | 135° |
| 2026-04-26 09:43 | 29.96687 | 31.58309 | 36987 ft | 520 kts | 135° |
| 2026-04-26 09:44 | 29.92360 | 31.64986 | 37024 ft | 520 kts | 136° |
| 2026-04-26 09:44 | 29.88025 | 31.71681 | 37036 ft | 521 kts | 135° |
| 2026-04-26 09:45 | 29.83722 | 31.78399 | 37049 ft | 521 kts | 135° |
| 2026-04-26 09:45 | 29.79582 | 31.85221 | 37027 ft | 530 kts | 127° |
| 2026-04-26 09:45 | 29.77993 | 31.89099 | 37037 ft | 540 kts | 116° |
| 2026-04-26 09:46 | 29.76896 | 31.93262 | 37034 ft | 546 kts | 109° |
| 2026-04-26 09:46 | 29.75030 | 32.01729 | 37036 ft | 546 kts | 109° |
| 2026-04-26 09:47 | 29.73149 | 32.10184 | 37009 ft | 546 kts | 109° |
| 2026-04-26 09:47 | 29.71563 | 32.17279 | 37027 ft | 546 kts | 109° |
| 2026-04-26 09:48 | 29.69684 | 32.25689 | 37031 ft | 546 kts | 110° |
| 2026-04-26 09:48 | 29.67783 | 32.34144 | 37028 ft | 546 kts | 110° |
| 2026-04-26 09:49 | 29.65871 | 32.42601 | 37013 ft | 546 kts | 110° |
| 2026-04-26 09:49 | 29.63960 | 32.51052 | 37019 ft | 546 kts | 110° |
| 2026-04-26 09:50 | 29.62047 | 32.59508 | 37025 ft | 546 kts | 110° |
| 2026-04-26 09:50 | 29.59722 | 32.67739 | 37006 ft | 535 kts | 123° |
| 2026-04-26 09:50 | 29.57954 | 32.71450 | 36999 ft | 524 kts | 132° |
| 2026-04-26 09:51 | 29.55849 | 32.74821 | 37005 ft | 517 kts | 136° |
| 2026-04-26 09:51 | 29.51503 | 32.81419 | 37012 ft | 518 kts | 136° |
| 2026-04-26 09:52 | 29.47168 | 32.88030 | 36980 ft | 519 kts | 136° |
| 2026-04-26 09:52 | 29.40642 | 32.97945 | 36980 ft | 519 kts | 136° |
| 2026-04-26 09:53 | 29.36275 | 33.04553 | 36998 ft | 520 kts | 136° |
| 2026-04-26 09:53 | 29.31901 | 33.11158 | 37004 ft | 520 kts | 136° |
| 2026-04-26 09:54 | 29.27524 | 33.17770 | 36986 ft | 521 kts | 136° |
| 2026-04-26 09:54 | 29.23175 | 33.24341 | 36857 ft | 520 kts | 136° |
| 2026-04-26 09:55 | 29.20983 | 33.27637 | 36233 ft | 522 kts | 137° |
| 2026-04-26 09:55 | 29.18776 | 33.30945 | 35522 ft | 524 kts | 136° |
| 2026-04-26 09:55 | 29.16557 | 33.34272 | 34852 ft | 525 kts | 136° |
| 2026-04-26 09:55 | 29.14349 | 33.37583 | 34275 ft | 524 kts | 136° |
| 2026-04-26 09:56 | 29.12144 | 33.40894 | 33654 ft | 522 kts | 136° |
| 2026-04-26 09:56 | 29.09946 | 33.44197 | 33079 ft | 518 kts | 136° |
| 2026-04-26 09:56 | 29.07773 | 33.47463 | 32502 ft | 515 kts | 135° |
| 2026-04-26 09:56 | 29.05612 | 33.50706 | 31913 ft | 511 kts | 135° |
| 2026-04-26 09:57 | 29.03468 | 33.53921 | 31406 ft | 506 kts | 135° |
| 2026-04-26 09:57 | 29.01352 | 33.57092 | 31037 ft | 498 kts | 135° |
| 2026-04-26 09:57 | 28.99257 | 33.60225 | 30536 ft | 494 kts | 135° |
| 2026-04-26 09:57 | 28.97179 | 33.63326 | 30055 ft | 489 kts | 135° |
| 2026-04-26 09:58 | 28.95116 | 33.66395 | 29386 ft | 486 kts | 135° |
| 2026-04-26 09:58 | 28.93067 | 33.69438 | 28768 ft | 481 kts | 134° |
| 2026-04-26 09:58 | 28.91042 | 33.72447 | 28206 ft | 475 kts | 134° |
| 2026-04-26 09:58 | 28.89042 | 33.75421 | 27678 ft | 469 kts | 134° |
| 2026-04-26 09:59 | 28.87073 | 33.78351 | 27189 ft | 462 kts | 134° |
| 2026-04-26 09:59 | 28.85082 | 33.81177 | 26705 ft | 450 kts | 140° |
| 2026-04-26 09:59 | 28.82830 | 33.83546 | 26324 ft | 433 kts | 148° |
| 2026-04-26 09:59 | 28.80518 | 33.85712 | 25898 ft | 427 kts | 148° |
| 2026-04-26 10:00 | 28.78246 | 33.87854 | 25498 ft | 420 kts | 147° |
| 2026-04-26 10:00 | 28.76017 | 33.89961 | 25102 ft | 414 kts | 147° |
| 2026-04-26 10:00 | 28.73812 | 33.92040 | 24707 ft | 408 kts | 147° |
| 2026-04-26 10:00 | 28.71640 | 33.94086 | 24309 ft | 403 kts | 147° |
| 2026-04-26 10:01 | 28.69488 | 33.96111 | 23867 ft | 399 kts | 147° |
| 2026-04-26 10:01 | 28.67383 | 33.98087 | 23430 ft | 395 kts | 147° |
| 2026-04-26 10:01 | 28.65272 | 34.00069 | 22966 ft | 391 kts | 147° |
| 2026-04-26 10:01 | 28.63186 | 34.02026 | 22526 ft | 386 kts | 147° |
| 2026-04-26 10:02 | 28.61132 | 34.03953 | 22102 ft | 380 kts | 147° |
| 2026-04-26 10:02 | 28.59100 | 34.05856 | 21672 ft | 375 kts | 147° |
| 2026-04-26 10:02 | 28.57100 | 34.07730 | 21250 ft | 370 kts | 147° |
| 2026-04-26 10:02 | 28.55118 | 34.09585 | 20828 ft | 366 kts | 147° |
| 2026-04-26 10:03 | 28.53164 | 34.11414 | 20406 ft | 362 kts | 147° |
| 2026-04-26 10:03 | 28.51230 | 34.13224 | 19994 ft | 358 kts | 147° |
| 2026-04-26 10:03 | 28.49289 | 34.14963 | 19570 ft | 350 kts | 154° |
| 2026-04-26 10:03 | 28.47153 | 34.16151 | 19182 ft | 335 kts | 169° |
| 2026-04-26 10:04 | 28.44924 | 34.16657 | 18807 ft | 321 kts | 184° |
| 2026-04-26 10:04 | 28.42743 | 34.16523 | 18434 ft | 308 kts | 196° |
| 2026-04-26 10:04 | 28.40722 | 34.15862 | 18056 ft | 298 kts | 205° |
| 2026-04-26 10:04 | 28.38773 | 34.15109 | 17678 ft | 294 kts | 205° |
| 2026-04-26 10:05 | 28.36849 | 34.14376 | 17345 ft | 289 kts | 205° |
| 2026-04-26 10:05 | 28.34971 | 34.13662 | 17011 ft | 288 kts | 205° |
| 2026-04-26 10:05 | 28.33078 | 34.12940 | 16676 ft | 287 kts | 205° |
| 2026-04-26 10:05 | 28.31189 | 34.12224 | 16335 ft | 285 kts | 205° |
| 2026-04-26 10:06 | 28.29320 | 34.11514 | 15953 ft | 283 kts | 205° |
| 2026-04-26 10:06 | 28.27457 | 34.10807 | 15570 ft | 281 kts | 205° |
| 2026-04-26 10:06 | 28.25608 | 34.10103 | 15202 ft | 280 kts | 205° |
| 2026-04-26 10:06 | 28.23771 | 34.09404 | 14835 ft | 277 kts | 204° |
| 2026-04-26 10:07 | 28.21944 | 34.08708 | 14461 ft | 276 kts | 204° |
| 2026-04-26 10:07 | 28.20127 | 34.08016 | 14107 ft | 274 kts | 205° |
| 2026-04-26 10:07 | 28.18330 | 34.07333 | 13745 ft | 270 kts | 206° |
| 2026-04-26 10:07 | 28.16541 | 34.06652 | 13358 ft | 271 kts | 204° |
| 2026-04-26 10:08 | 28.14752 | 34.05974 | 13000 ft | 271 kts | 204° |
| 2026-04-26 10:08 | 28.12969 | 34.05298 | 12628 ft | 270 kts | 204° |
| 2026-04-26 10:08 | 28.11193 | 34.04626 | 12274 ft | 269 kts | 203° |
| 2026-04-26 10:08 | 28.09422 | 34.03955 | 11917 ft | 267 kts | 203° |
| 2026-04-26 10:09 | 28.07664 | 34.03291 | 11559 ft | 266 kts | 202° |
| 2026-04-26 10:09 | 28.05919 | 34.02631 | 11252 ft | 263 kts | 202° |
| 2026-04-26 10:09 | 28.04191 | 34.01975 | 10906 ft | 260 kts | 202° |
| 2026-04-26 10:09 | 28.02478 | 34.01326 | 10565 ft | 259 kts | 202° |
| 2026-04-26 10:10 | 28.00797 | 34.00688 | 10248 ft | 257 kts | 201° |
| 2026-04-26 10:10 | 27.99124 | 34.00056 | 9965 ft | 254 kts | 201° |
| 2026-04-26 10:10 | 27.97440 | 33.99419 | 9550 ft | 256 kts | 201° |
| 2026-04-26 10:10 | 27.95756 | 33.98781 | 9190 ft | 254 kts | 201° |
| 2026-04-26 10:11 | 27.94062 | 33.98213 | 8840 ft | 255 kts | 191° |
| 2026-04-26 10:11 | 27.92292 | 33.98396 | 8496 ft | 261 kts | 164° |
| 2026-04-26 10:11 | 27.90769 | 33.99532 | 8147 ft | 270 kts | 135° |
| 2026-04-26 10:11 | 27.89838 | 34.01390 | 7780 ft | 275 kts | 115° |
| 2026-04-26 10:12 | 27.89117 | 34.03397 | 7408 ft | 276 kts | 115° |
| 2026-04-26 10:12 | 27.88395 | 34.05410 | 7041 ft | 277 kts | 115° |
| 2026-04-26 10:12 | 27.87667 | 34.07426 | 6678 ft | 277 kts | 115° |
| 2026-04-26 10:12 | 27.86938 | 34.09441 | 6295 ft | 277 kts | 115° |
| 2026-04-26 10:13 | 27.86208 | 34.11455 | 5893 ft | 277 kts | 115° |
| 2026-04-26 10:13 | 27.85479 | 34.13469 | 5530 ft | 277 kts | 115° |
| 2026-04-26 10:13 | 27.84749 | 34.15478 | 5166 ft | 276 kts | 115° |
| 2026-04-26 10:13 | 27.84020 | 34.17483 | 4796 ft | 276 kts | 115° |
| 2026-04-26 10:14 | 27.83291 | 34.19486 | 4413 ft | 275 kts | 114° |
| 2026-04-26 10:14 | 27.82868 | 34.21618 | 3860 ft | 284 kts | 90° |
| 2026-04-26 10:14 | 27.83333 | 34.23765 | 3589 ft | 281 kts | 63° |
| 2026-04-26 10:14 | 27.84517 | 34.25449 | 3276 ft | 269 kts | 43° |
| 2026-04-26 10:15 | 27.85862 | 34.26836 | 2942 ft | 253 kts | 43° |
| 2026-04-26 10:15 | 27.87152 | 34.28164 | 2648 ft | 249 kts | 43° |
| 2026-04-26 10:15 | 27.88412 | 34.29473 | 2313 ft | 242 kts | 43° |
| 2026-04-26 10:15 | 27.89631 | 34.30741 | 2021 ft | 234 kts | 43° |
| 2026-04-26 10:16 | 27.90798 | 34.31956 | 1761 ft | 219 kts | 44° |
| 2026-04-26 10:16 | 27.91875 | 34.33076 | 1511 ft | 201 kts | 45° |
| 2026-04-26 10:16 | 27.92847 | 34.34088 | 1246 ft | 179 kts | 45° |
| 2026-04-26 10:16 | 27.93694 | 34.34970 | 1009 ft | 159 kts | 45° |
| 2026-04-26 10:17 | 27.94496 | 34.35806 | 804 ft | 155 kts | 49° |
| 2026-04-26 10:17 | 27.95267 | 34.36611 | 592 ft | 151 kts | 47° |
| 2026-04-26 10:17 | 27.96031 | 34.37414 | 420 ft | 148 kts | 49° |
| 2026-04-26 10:17 | 27.96788 | 34.38197 | 217 ft | 147 kts | 47° |
| 2026-04-26 10:18 | 27.97520 | 34.38962 | 138 ft | 131 kts | 44° |
| 2026-04-26 10:18 | 27.98080 | 34.39554 | 139 ft | 85 kts | 43° |
| 2026-04-26 10:18 | 27.98389 | 34.39879 | 137 ft | 36 kts | 41° |
| 2026-04-26 10:18 | 27.98521 | 34.39968 | 138 ft | 15 kts | 352° |
| 2026-04-26 10:19 | 27.98580 | 34.39905 | 139 ft | 13 kts | 306° |
| 2026-04-26 10:19 | 27.98621 | 34.39814 | 139 ft | 12 kts | 262° |
| 2026-04-26 10:19 | 27.98557 | 34.39745 | 139 ft | 15 kts | 226° |
| 2026-04-26 10:19 | 27.98467 | 34.39647 | 139 ft | 21 kts | 223° |
| 2026-04-26 10:20 | 27.98358 | 34.39538 | 139 ft | 20 kts | 223° |
| 2026-04-26 10:20 | 27.98306 | 34.39483 | 139 ft | 13 kts | 224° |
| 2026-04-26 10:20 | 27.98271 | 34.39409 | 139 ft | 6 kts | 301° |
| 2026-04-26 10:20 | 27.98287 | 34.39348 | 139 ft | 10 kts | 257° |
| 2026-04-26 10:21 | 27.98291 | 34.39276 | 139 ft | 10 kts | 311° |
| 2026-04-26 10:21 | 27.98308 | 34.39255 | 139 ft | 0 kts | 312° |